createdAt,value
2023-09-17T00:01:46.530Z,19.55
2023-09-17T00:04:14.389Z,19.63
2023-09-17T00:06:43.371Z,19.62
2023-09-17T00:09:11.553Z,19.57
2023-09-17T00:11:40.611Z,19.56
2023-09-17T00:14:08.430Z,19.52
2023-09-17T00:16:35.981Z,19.49
2023-09-17T00:19:05.065Z,19.39
2023-09-17T00:21:32.696Z,19.13
2023-09-17T00:24:00.199Z,18.80
2023-09-17T00:26:27.751Z,18.58
2023-09-17T00:28:56.662Z,18.45
2023-09-17T00:31:24.241Z,18.34
2023-09-17T00:33:51.903Z,18.25
2023-09-17T00:36:20.136Z,18.26
2023-09-17T00:38:47.654Z,18.18
2023-09-17T00:41:15.521Z,18.26
2023-09-17T00:43:44.145Z,18.15
2023-09-17T00:46:15.866Z,18.07
2023-09-17T00:48:44.825Z,17.97
2023-09-17T00:51:12.384Z,17.91
2023-09-17T00:53:41.343Z,17.99
2023-09-17T00:56:10.034Z,17.96
2023-09-17T00:58:39.219Z,17.89
2023-09-17T01:01:08.730Z,18.40
2023-09-17T01:03:38.870Z,18.75
2023-09-17T01:06:07.707Z,18.89
2023-09-17T01:08:37.065Z,18.99
2023-09-17T01:11:04.800Z,19.07
2023-09-17T01:13:35.553Z,19.11
2023-09-17T01:16:05.025Z,19.24
2023-09-17T01:18:33.697Z,19.23
2023-09-17T01:21:12.351Z,19.30
2023-09-17T01:23:44.983Z,19.19
2023-09-17T01:26:17.996Z,19.27
2023-09-17T01:28:46.945Z,19.16
2023-09-17T01:31:14.511Z,19.00
2023-09-17T01:33:42.063Z,19.09
2023-09-17T01:36:18.286Z,19.20
2023-09-17T01:38:49.074Z,19.15
2023-09-17T01:41:19.073Z,18.96
2023-09-17T01:43:49.105Z,18.99
2023-09-17T01:46:17.530Z,19.17
2023-09-17T01:48:47.759Z,19.25
2023-09-17T01:51:15.927Z,19.30
2023-09-17T01:53:43.722Z,19.31
2023-09-17T01:56:13.384Z,19.17
2023-09-17T01:58:40.966Z,19.03
2023-09-17T02:01:09.835Z,18.88
2023-09-17T02:03:37.434Z,19.08
2023-09-17T02:06:05.381Z,19.15
2023-09-17T02:08:33.154Z,19.19
2023-09-17T02:11:00.677Z,19.21
2023-09-17T02:13:28.254Z,19.06
2023-09-17T02:15:55.808Z,18.91
2023-09-17T02:18:24.730Z,18.64
2023-09-17T02:20:52.227Z,18.34
2023-09-17T02:23:19.774Z,18.39
2023-09-17T02:25:47.792Z,18.50
2023-09-17T02:28:15.522Z,18.68
2023-09-17T02:30:42.127Z,18.51
2023-09-17T02:33:11.605Z,18.46
2023-09-17T02:35:40.692Z,18.21
2023-09-17T02:38:08.236Z,18.01
2023-09-17T02:40:35.811Z,17.93
2023-09-17T02:43:03.355Z,17.82
2023-09-17T02:45:30.988Z,17.89
2023-09-17T02:47:58.538Z,18.20
2023-09-17T02:50:26.120Z,18.13
2023-09-17T02:52:55.133Z,18.40
2023-09-17T02:55:23.136Z,18.39
2023-09-17T02:57:50.758Z,18.30
2023-09-17T03:00:22.611Z,18.19
2023-09-17T03:02:55.558Z,18.12
2023-09-17T03:05:23.276Z,18.00
2023-09-17T03:07:50.845Z,18.08
2023-09-17T03:10:21.405Z,18.28
2023-09-17T03:12:49.144Z,18.44
2023-09-17T03:15:16.705Z,18.30
2023-09-17T03:17:44.649Z,18.12
2023-09-17T03:20:18.229Z,18.22
2023-09-17T03:22:46.377Z,18.13
2023-09-17T03:25:14.632Z,18.01
2023-09-17T03:27:45.170Z,17.93
2023-09-17T03:30:13.790Z,17.87
2023-09-17T03:32:53.386Z,17.76
2023-09-17T03:35:25.822Z,17.65
2023-09-17T03:37:53.566Z,17.68
2023-09-17T03:40:21.144Z,17.73
2023-09-17T03:42:50.025Z,17.73
2023-09-17T03:45:17.848Z,17.64
2023-09-17T03:47:48.349Z,17.56
2023-09-17T03:50:21.247Z,17.50
2023-09-17T03:52:52.601Z,17.46
2023-09-17T03:55:20.857Z,17.48
2023-09-17T03:57:50.021Z,17.41
2023-09-17T04:00:18.668Z,17.35
2023-09-17T04:02:46.904Z,17.31
2023-09-17T04:05:15.438Z,17.29
2023-09-17T04:07:44.517Z,17.28
2023-09-17T04:10:13.330Z,17.29
2023-09-17T04:12:42.112Z,17.27
2023-09-17T04:15:14.342Z,17.22
2023-09-17T04:17:42.256Z,17.22
2023-09-17T04:20:14.483Z,17.25
2023-09-17T04:22:43.183Z,17.22
2023-09-17T04:25:11.573Z,17.24
2023-09-17T04:27:39.751Z,17.25
2023-09-17T04:30:08.759Z,17.28
2023-09-17T04:32:39.452Z,17.30
2023-09-17T04:35:08.834Z,17.24
2023-09-17T04:37:37.516Z,17.25
2023-09-17T04:40:09.632Z,17.22
2023-09-17T04:42:37.734Z,17.25
2023-09-17T04:45:06.189Z,17.21
2023-09-17T04:47:35.394Z,17.20
2023-09-17T04:50:09.110Z,17.22
2023-09-17T04:52:36.724Z,17.23
2023-09-17T04:55:04.565Z,17.24
2023-09-17T04:57:32.134Z,17.24
2023-09-17T05:00:02.515Z,17.21
2023-09-17T05:02:30.165Z,17.29
2023-09-17T05:04:57.821Z,17.26
2023-09-17T05:07:26.738Z,17.23
2023-09-17T05:09:54.430Z,17.24
2023-09-17T05:12:22.241Z,17.20
2023-09-17T05:14:49.733Z,17.22
2023-09-17T05:17:18.588Z,17.22
2023-09-17T05:19:46.150Z,17.20
2023-09-17T05:22:13.717Z,17.21
2023-09-17T05:24:43.004Z,17.25
2023-09-17T05:27:10.531Z,17.31
2023-09-17T05:29:38.101Z,17.31
2023-09-17T05:32:06.482Z,17.33
2023-09-17T05:34:34.150Z,17.33
2023-09-17T05:37:01.659Z,17.34
2023-09-17T05:39:29.194Z,17.35
2023-09-17T05:41:58.057Z,17.40
2023-09-17T05:44:25.712Z,17.52
2023-09-17T05:46:53.309Z,17.65
2023-09-17T05:49:20.980Z,17.70
2023-09-17T05:51:48.647Z,17.74
2023-09-17T05:54:16.221Z,17.80
2023-09-17T05:56:43.763Z,17.80
2023-09-17T05:59:12.641Z,17.84
2023-09-17T06:01:40.361Z,17.98
2023-09-17T06:04:08.042Z,18.13
2023-09-17T06:06:35.550Z,18.25
2023-09-17T06:09:03.057Z,18.21
2023-09-17T06:11:31.244Z,18.34
2023-09-17T06:13:59.176Z,18.50
2023-09-17T06:16:32.081Z,18.63
2023-09-17T06:19:06.899Z,18.76
2023-09-17T06:21:34.963Z,18.98
2023-09-17T06:24:02.550Z,19.14
2023-09-17T06:26:30.054Z,19.20
2023-09-17T06:28:57.745Z,19.31
2023-09-17T06:31:25.397Z,19.66
2023-09-17T06:33:55.083Z,20.04
2023-09-17T06:36:23.838Z,20.19
2023-09-17T06:38:51.376Z,20.18
2023-09-17T06:41:18.901Z,20.13
2023-09-17T06:43:47.925Z,20.09
2023-09-17T06:46:15.829Z,20.23
2023-09-17T06:48:43.581Z,20.14
2023-09-17T06:51:12.438Z,20.36
2023-09-17T06:53:40.658Z,20.58
2023-09-17T06:56:09.776Z,20.72
2023-09-17T06:58:37.411Z,20.85
2023-09-17T07:01:04.976Z,20.68
2023-09-17T07:03:33.419Z,20.80
2023-09-17T07:06:00.969Z,20.63
2023-09-17T07:08:29.843Z,20.73
2023-09-17T07:10:57.411Z,20.33
2023-09-17T07:13:25.095Z,20.09
2023-09-17T07:15:52.619Z,19.99
2023-09-17T07:18:21.324Z,19.98
2023-09-17T07:20:50.885Z,20.17
2023-09-17T07:23:18.466Z,20.25
2023-09-17T07:25:47.806Z,20.21
2023-09-17T07:28:15.464Z,20.26
2023-09-17T07:30:43.014Z,20.57
2023-09-17T07:33:10.582Z,20.68
2023-09-17T07:35:41.221Z,20.65
2023-09-17T07:38:08.792Z,20.64
2023-09-17T07:40:36.326Z,20.80
2023-09-17T07:43:06.002Z,20.69
2023-09-17T07:45:35.012Z,20.71
2023-09-17T07:48:03.463Z,20.96
2023-09-17T07:50:31.075Z,21.04
2023-09-17T07:52:58.943Z,21.20
2023-09-17T07:55:27.084Z,21.24
2023-09-17T07:57:55.990Z,21.40
2023-09-17T08:00:24.899Z,21.32
2023-09-17T08:02:52.781Z,21.38
2023-09-17T08:05:20.498Z,21.35
2023-09-17T08:07:48.260Z,21.39
2023-09-17T08:10:16.278Z,21.61
2023-09-17T08:12:43.801Z,21.63
2023-09-17T08:15:11.584Z,21.72
2023-09-17T08:17:40.469Z,21.89
2023-09-17T08:20:11.688Z,21.87
2023-09-17T08:22:40.094Z,21.91
2023-09-17T08:25:09.995Z,22.16
2023-09-17T08:27:37.616Z,22.47
2023-09-17T08:30:12.899Z,22.71
2023-09-17T08:32:42.338Z,22.71
2023-09-17T08:35:10.396Z,22.48
2023-09-17T08:37:39.051Z,22.53
2023-09-17T08:40:09.237Z,22.78
2023-09-17T08:42:37.266Z,23.10
2023-09-17T08:45:06.991Z,23.12
2023-09-17T08:47:34.564Z,23.04
2023-09-17T08:50:03.833Z,23.21
2023-09-17T08:52:34.300Z,23.20
2023-09-17T08:55:03.985Z,23.16
2023-09-17T08:57:32.773Z,23.25
2023-09-17T09:00:09.340Z,23.14
2023-09-17T09:02:43.861Z,23.40
2023-09-17T09:05:13.238Z,23.55
2023-09-17T09:07:41.982Z,23.34
2023-09-17T09:10:10.579Z,23.37
2023-09-17T09:12:39.208Z,23.42
2023-09-17T09:15:11.049Z,23.55
2023-09-17T09:17:39.850Z,23.74
2023-09-17T09:20:10.814Z,23.52
2023-09-17T09:22:41.861Z,23.62
2023-09-17T09:25:11.110Z,23.67
2023-09-17T09:27:38.966Z,23.62
2023-09-17T09:30:09.538Z,23.85
2023-09-17T09:32:37.980Z,23.79
2023-09-17T09:35:07.296Z,23.80
2023-09-17T09:37:36.850Z,23.71
2023-09-17T09:40:07.493Z,23.74
2023-09-17T09:42:35.097Z,23.55
2023-09-17T09:45:05.090Z,23.47
2023-09-17T09:47:33.306Z,23.56
2023-09-17T09:50:02.095Z,23.68
2023-09-17T09:52:30.650Z,23.71
2023-09-17T09:54:58.345Z,23.75
2023-09-17T09:57:27.546Z,23.88
2023-09-17T09:59:55.215Z,24.06
2023-09-17T10:02:23.491Z,24.15
2023-09-17T10:04:51.236Z,24.20
2023-09-17T10:07:19.352Z,24.32
2023-09-17T10:09:48.388Z,24.56
2023-09-17T10:12:16.522Z,24.70
2023-09-17T10:14:45.734Z,24.90
2023-09-17T10:17:14.529Z,25.22
2023-09-17T10:19:43.770Z,25.51
2023-09-17T10:22:13.923Z,25.74
2023-09-17T10:24:42.437Z,25.81
2023-09-17T10:27:11.056Z,25.87
2023-09-17T10:29:39.546Z,25.79
2023-09-17T10:32:10.621Z,25.97
2023-09-17T10:34:38.832Z,25.69
2023-09-17T10:37:07.497Z,25.83
2023-09-17T10:39:37.642Z,25.83
2023-09-17T10:42:08.609Z,25.96
2023-09-17T10:44:38.028Z,26.03
2023-09-17T10:47:12.192Z,25.95
2023-09-17T10:49:40.750Z,26.06
2023-09-17T10:52:08.960Z,26.31
2023-09-17T10:54:36.620Z,26.34
2023-09-17T10:57:11.650Z,26.30
2023-09-17T10:59:40.615Z,26.09
2023-09-17T11:02:10.152Z,26.18
2023-09-17T11:04:40.603Z,26.29
2023-09-17T11:07:10.446Z,26.17
2023-09-17T11:09:37.712Z,26.26
2023-09-17T11:12:06.347Z,26.05
2023-09-17T11:14:34.400Z,26.21
2023-09-17T11:17:02.275Z,26.28
2023-09-17T11:19:29.955Z,26.49
2023-09-17T11:22:13.777Z,26.74
2023-09-17T11:24:41.605Z,26.96
2023-09-17T11:27:12.785Z,26.93
2023-09-17T11:29:41.575Z,27.12
2023-09-17T11:32:09.930Z,27.23
2023-09-17T11:34:40.534Z,27.36
2023-09-17T11:37:09.821Z,27.29
2023-09-17T11:39:54.802Z,27.34
2023-09-17T11:42:24.934Z,26.97
2023-09-17T11:44:53.478Z,26.93
2023-09-17T11:47:21.713Z,27.07
2023-09-17T11:49:51.682Z,27.01
2023-09-17T11:52:19.462Z,27.15
2023-09-17T11:54:49.573Z,27.32
2023-09-17T11:57:25.490Z,27.33
2023-09-17T11:59:53.332Z,27.16
2023-09-17T12:02:21.452Z,27.02
2023-09-17T12:04:50.491Z,26.97
2023-09-17T12:07:18.110Z,26.89
2023-09-17T12:09:59.241Z,26.66
2023-09-17T12:12:28.573Z,26.70
2023-09-17T12:14:56.765Z,26.63
2023-09-17T12:17:24.462Z,26.52
2023-09-17T12:20:00.683Z,26.66
2023-09-17T12:22:29.883Z,26.72
2023-09-17T12:25:04.211Z,26.85
2023-09-17T12:27:37.104Z,26.89
2023-09-17T12:30:09.648Z,27.10
2023-09-17T12:32:37.912Z,27.12
2023-09-17T12:35:07.738Z,27.12
2023-09-17T12:37:35.608Z,27.23
2023-09-17T12:40:03.159Z,27.33
2023-09-17T12:42:30.791Z,27.57
2023-09-17T12:45:00.417Z,27.43
2023-09-17T12:47:28.462Z,27.39
2023-09-17T12:49:56.792Z,27.31
2023-09-17T12:52:25.160Z,27.29
2023-09-17T12:54:54.582Z,27.29
2023-09-17T12:57:23.097Z,27.36
2023-09-17T12:59:52.670Z,26.81
2023-09-17T13:02:29.497Z,27.29
2023-09-17T13:04:57.386Z,27.44
2023-09-17T13:07:27.350Z,27.67
2023-09-17T13:09:56.727Z,27.98
2023-09-17T13:12:25.181Z,28.41
2023-09-17T13:14:53.541Z,28.28
2023-09-17T13:17:24.256Z,28.48
2023-09-17T13:19:52.624Z,28.56
2023-09-17T13:22:21.547Z,27.98
2023-09-17T13:24:49.760Z,28.17
2023-09-17T13:27:18.274Z,28.10
2023-09-17T13:29:49.738Z,27.96
2023-09-17T13:32:19.021Z,28.04
2023-09-17T13:34:48.470Z,28.13
2023-09-17T13:37:17.272Z,28.11
2023-09-17T13:39:46.692Z,27.87
2023-09-17T13:42:14.506Z,28.16
2023-09-17T13:44:42.032Z,28.45
2023-09-17T13:47:12.113Z,28.68
2023-09-17T13:49:40.186Z,28.48
2023-09-17T13:52:09.576Z,28.64
2023-09-17T13:54:38.543Z,28.40
2023-09-17T13:57:06.367Z,28.68
2023-09-17T13:59:33.893Z,28.69
2023-09-17T14:02:03.087Z,28.78
2023-09-17T14:04:30.852Z,28.89
2023-09-17T14:06:58.978Z,28.84
2023-09-17T14:09:27.959Z,28.93
2023-09-17T14:11:55.692Z,28.63
2023-09-17T14:14:23.399Z,28.03
2023-09-17T14:16:51.009Z,28.02
2023-09-17T14:19:20.079Z,28.14
2023-09-17T14:21:49.037Z,28.09
2023-09-17T14:24:16.965Z,28.02
2023-09-17T14:26:46.081Z,27.83
2023-09-17T14:29:13.892Z,27.79
2023-09-17T14:31:44.312Z,28.01
2023-09-17T14:34:12.661Z,28.33
2023-09-17T14:36:40.578Z,28.32
2023-09-17T14:39:10.694Z,28.50
2023-09-17T14:41:39.884Z,28.57
2023-09-17T14:44:09.416Z,28.56
2023-09-17T14:46:39.414Z,28.63
2023-09-17T14:49:07.392Z,28.41
2023-09-17T14:51:34.914Z,28.51
2023-09-17T14:54:02.690Z,28.71
2023-09-17T14:56:31.715Z,28.56
2023-09-17T14:58:59.321Z,28.45
2023-09-17T15:01:53.118Z,28.37
2023-09-17T15:04:15.870Z,28.42
2023-09-17T15:06:43.469Z,28.51
2023-09-17T15:09:11.330Z,28.49
2023-09-17T15:11:38.838Z,28.54
2023-09-17T15:14:06.498Z,28.44
2023-09-17T15:16:35.424Z,28.40
2023-09-17T15:19:02.954Z,28.10
2023-09-17T15:21:30.444Z,27.97
2023-09-17T15:23:58.050Z,28.24
2023-09-17T15:26:26.570Z,28.21
2023-09-17T15:28:54.403Z,28.23
2023-09-17T15:31:22.171Z,28.27
2023-09-17T15:33:51.276Z,27.94
2023-09-17T15:36:19.069Z,27.99
2023-09-17T15:38:46.930Z,27.87
2023-09-17T15:41:14.588Z,27.87
2023-09-17T15:43:43.467Z,27.90
2023-09-17T15:46:11.056Z,27.75
2023-09-17T15:48:38.601Z,27.75
2023-09-17T15:51:07.623Z,27.94
2023-09-17T15:53:35.126Z,27.64
2023-09-17T15:56:02.670Z,27.63
2023-09-17T15:58:30.207Z,27.64
2023-09-17T16:00:57.720Z,27.27
2023-09-17T16:03:25.587Z,27.12
2023-09-17T16:05:54.029Z,27.10
2023-09-17T16:08:23.945Z,27.11
2023-09-17T16:10:51.528Z,27.13
2023-09-17T16:13:19.527Z,27.20
2023-09-17T16:15:47.049Z,27.34
2023-09-17T16:18:14.659Z,27.31
2023-09-17T16:20:42.322Z,27.30
2023-09-17T16:23:10.003Z,27.29
2023-09-17T16:25:40.226Z,27.05
2023-09-17T16:28:07.964Z,26.59
2023-09-17T16:30:35.466Z,26.67
2023-09-17T16:33:03.074Z,26.66
2023-09-17T16:35:30.644Z,26.43
2023-09-17T16:37:58.383Z,26.34
2023-09-17T16:40:25.934Z,26.17
2023-09-17T16:43:07.304Z,25.80
2023-09-17T16:45:38.331Z,25.63
2023-09-17T16:48:06.369Z,25.58
2023-09-17T16:50:34.017Z,25.58
2023-09-17T16:53:01.587Z,25.35
2023-09-17T16:55:29.423Z,25.31
2023-09-17T16:57:57.505Z,25.39
2023-09-17T17:00:25.297Z,25.39
2023-09-17T17:02:53.137Z,25.20
2023-09-17T17:05:21.220Z,25.11
2023-09-17T17:07:48.835Z,24.93
2023-09-17T17:10:16.562Z,24.79
2023-09-17T17:12:44.069Z,24.78
2023-09-17T17:15:13.048Z,24.68
2023-09-17T17:17:40.763Z,24.53
2023-09-17T17:20:09.445Z,24.39
2023-09-17T17:22:44.509Z,24.29
2023-09-17T17:25:12.039Z,24.25
2023-09-17T17:27:40.141Z,24.07
2023-09-17T17:30:11.076Z,23.88
2023-09-17T17:32:41.674Z,23.76
2023-09-17T17:35:10.520Z,23.69
2023-09-17T17:37:38.156Z,23.53
2023-09-17T17:40:06.610Z,23.36
2023-09-17T17:42:34.131Z,23.28
2023-09-17T17:45:01.636Z,23.12
2023-09-17T17:47:33.545Z,23.00
2023-09-17T17:50:02.508Z,22.92
2023-09-17T17:52:30.087Z,22.84
2023-09-17T17:54:57.720Z,22.74
2023-09-17T17:57:25.249Z,22.66
2023-09-17T17:59:52.793Z,22.57
2023-09-17T18:02:20.635Z,22.46
2023-09-17T18:04:48.201Z,22.38
2023-09-17T18:07:17.218Z,22.26
2023-09-17T18:09:45.137Z,22.18
2023-09-17T18:12:13.641Z,22.11
2023-09-17T18:14:41.444Z,22.03
2023-09-17T18:17:09.024Z,22.00
2023-09-17T18:19:36.645Z,21.95
2023-09-17T18:22:04.444Z,21.84
2023-09-17T18:24:33.310Z,21.77
2023-09-17T18:27:00.797Z,21.69
2023-09-17T18:29:31.266Z,21.64
2023-09-17T18:31:59.289Z,21.55
2023-09-17T18:34:28.359Z,21.54
2023-09-17T18:36:56.606Z,21.47
2023-09-17T18:39:24.236Z,21.44
2023-09-17T18:41:53.228Z,21.40
2023-09-17T18:44:20.932Z,21.34
2023-09-17T18:46:49.065Z,21.29
2023-09-17T18:49:19.652Z,21.28
2023-09-17T18:51:47.596Z,21.23
2023-09-17T18:54:15.557Z,21.19
2023-09-17T18:56:43.576Z,21.19
2023-09-17T18:59:12.794Z,21.19
2023-09-17T19:01:41.302Z,21.15
2023-09-17T19:04:09.147Z,21.16
2023-09-17T19:06:37.192Z,21.26
2023-09-17T19:09:06.611Z,21.22
2023-09-17T19:11:34.516Z,21.22
2023-09-17T19:14:02.419Z,21.18
2023-09-17T19:16:31.658Z,21.14
2023-09-17T19:18:59.288Z,21.10
2023-09-17T19:21:26.882Z,21.05
2023-09-17T19:23:54.877Z,21.01
2023-09-17T19:26:22.969Z,21.00
2023-09-17T19:28:50.762Z,20.96
2023-09-17T19:31:18.417Z,20.90
2023-09-17T19:33:47.840Z,20.88
2023-09-17T19:36:15.521Z,20.84
2023-09-17T19:38:43.391Z,20.78
2023-09-17T19:41:11.147Z,20.74
2023-09-17T19:43:41.790Z,20.71
2023-09-17T19:46:09.467Z,20.69
2023-09-17T19:48:36.998Z,20.70
2023-09-17T19:51:10.079Z,20.65
2023-09-17T19:53:39.618Z,20.68
2023-09-17T19:56:07.203Z,20.60
2023-09-17T19:58:34.820Z,20.69
2023-09-17T20:01:03.749Z,20.63
2023-09-17T20:03:31.475Z,20.59
2023-09-17T20:06:00.192Z,20.56
2023-09-17T20:08:29.107Z,20.52
2023-09-17T20:10:56.918Z,20.48
2023-09-17T20:13:25.139Z,20.43
2023-09-17T20:15:52.744Z,20.42
2023-09-17T20:18:20.315Z,20.38
2023-09-17T20:20:48.308Z,20.31
2023-09-17T20:23:16.159Z,20.30
2023-09-17T20:25:47.586Z,20.62
2023-09-17T20:28:15.333Z,21.05
2023-09-17T20:30:45.075Z,21.47
2023-09-17T20:33:12.860Z,21.68
2023-09-17T20:35:40.597Z,21.91
2023-09-17T20:38:08.342Z,22.01
2023-09-17T20:40:36.101Z,22.01
2023-09-17T20:43:05.208Z,22.01
2023-09-17T20:45:33.084Z,22.10
2023-09-17T20:48:00.897Z,22.19
2023-09-17T20:50:28.879Z,22.24
2023-09-17T20:52:57.402Z,22.20
2023-09-17T20:55:27.624Z,22.13
2023-09-17T20:57:55.473Z,22.06
2023-09-17T21:00:24.894Z,21.93
2023-09-17T21:02:53.870Z,21.86
2023-09-17T21:05:22.562Z,21.85
2023-09-17T21:07:50.442Z,21.78
2023-09-17T21:10:17.964Z,21.75
2023-09-17T21:12:45.501Z,21.85
2023-09-17T21:15:13.046Z,21.86
2023-09-17T21:17:44.304Z,21.70
2023-09-17T21:20:19.498Z,21.78
2023-09-17T21:22:49.043Z,21.84
2023-09-17T21:25:17.540Z,21.79
2023-09-17T21:27:46.955Z,21.56
2023-09-17T21:30:14.906Z,21.58
2023-09-17T21:32:44.958Z,21.56
2023-09-17T21:35:12.960Z,21.57
2023-09-17T21:37:40.682Z,21.57
2023-09-17T21:40:09.378Z,21.57
2023-09-17T21:42:37.222Z,21.57
2023-09-17T21:45:05.561Z,21.55
2023-09-17T21:47:33.256Z,21.58
2023-09-17T21:50:02.913Z,21.55
2023-09-17T21:52:31.046Z,21.52
2023-09-17T21:54:59.430Z,21.43
2023-09-17T21:57:27.568Z,21.39
2023-09-17T21:59:55.189Z,21.35
2023-09-17T22:02:23.209Z,21.29
2023-09-17T22:04:50.883Z,21.23
2023-09-17T22:07:19.758Z,21.19
2023-09-17T22:09:47.292Z,21.15
2023-09-17T22:12:15.564Z,21.08
2023-09-17T22:14:43.140Z,21.07
2023-09-17T22:17:11.662Z,21.04
2023-09-17T22:19:41.675Z,21.01
2023-09-17T22:22:09.784Z,21.01
2023-09-17T22:24:43.902Z,20.85
2023-09-17T22:27:13.073Z,20.69
2023-09-17T22:29:42.529Z,20.80
2023-09-17T22:32:10.093Z,20.87
2023-09-17T22:34:37.647Z,20.89
2023-09-17T22:37:05.303Z,20.99
2023-09-17T22:39:32.832Z,21.00
2023-09-17T22:42:01.704Z,21.01
2023-09-17T22:44:29.258Z,21.02
2023-09-17T22:46:56.850Z,21.04
2023-09-17T22:49:24.607Z,21.02
2023-09-17T22:51:52.114Z,20.96
2023-09-17T22:54:20.634Z,20.86
2023-09-17T22:56:48.136Z,20.89
2023-09-17T22:59:16.991Z,20.95
2023-09-17T23:01:44.639Z,20.91
2023-09-17T23:04:12.169Z,20.96
2023-09-17T23:06:39.744Z,20.96
2023-09-17T23:09:09.535Z,20.96
2023-09-17T23:11:37.124Z,20.95
2023-09-17T23:14:06.823Z,20.92
2023-09-17T23:16:36.316Z,20.88
2023-09-17T23:19:07.079Z,20.84
2023-09-17T23:21:34.953Z,20.86
2023-09-17T23:24:03.274Z,20.84
2023-09-17T23:26:30.835Z,20.82
2023-09-17T23:28:59.186Z,20.81
2023-09-17T23:31:28.278Z,20.77
2023-09-17T23:33:57.488Z,20.79
2023-09-17T23:36:28.431Z,20.77
2023-09-17T23:38:56.413Z,20.79
2023-09-17T23:41:24.739Z,20.73
2023-09-17T23:43:52.398Z,20.77
2023-09-17T23:46:23.068Z,20.76
2023-09-17T23:48:50.962Z,20.75
2023-09-17T23:51:20.057Z,20.75
2023-09-17T23:53:47.610Z,20.76
2023-09-17T23:56:15.146Z,20.78
2023-09-17T23:58:42.692Z,20.74
